Time;durP1;ratioP1;P1;durP2;ratioP2;P2;SDS_P1;SDS_P2;PMS_P1;PMS_P2;Temp;Humidity;BMP_temperature;BMP_pressure;BME280_temperature;BME280_humidity;BME280_pressure;Samples;Min_cycle;Max_cycle;Signal;HPM_P1;HPM_P2
2021/10/08 00:02:08;;;;;;;29.45;13.23;;;;;;;8.35;100.00;96449.34;5067395;28;20047;-76
2021/10/08 00:04:35;;;;;;;27.48;13.48;;;;;;;8.44;100.00;96458.47;5067575;28;20045;-76
2021/10/08 00:07:01;;;;;;;30.83;13.25;;;;;;;8.39;100.00;96458.34;5043869;28;20045;-76
2021/10/08 00:09:30;;;;;;;29.98;13.05;;;;;;;8.38;100.00;96456.75;5031089;28;20094;-76
2021/10/08 00:11:56;;;;;;;30.02;13.38;;;;;;;8.42;100.00;96455.25;5065425;28;20526;-76
2021/10/08 00:14:26;;;;;;;33.50;13.85;;;;;;;8.36;100.00;96458.81;5069061;28;20643;-76
2021/10/08 00:16:52;;;;;;;36.70;14.65;;;;;;;8.20;100.00;96462.13;5058893;28;20040;-76
2021/10/08 00:19:18;;;;;;;39.40;15.98;;;;;;;8.14;100.00;96456.75;5048930;28;20056;-76
2021/10/08 00:21:44;;;;;;;37.08;16.23;;;;;;;8.07;100.00;96457.94;5062579;28;20433;-76
2021/10/08 00:24:10;;;;;;;39.85;15.13;;;;;;;8.20;100.00;96462.13;5050801;28;20040;-76
2021/10/08 00:26:40;;;;;;;34.80;14.98;;;;;;;8.22;100.00;96449.59;5065613;28;20036;-76
2021/10/08 00:29:06;;;;;;;32.40;13.57;;;;;;;8.25;100.00;96444.69;5050911;28;20142;-76
2021/10/08 00:31:32;;;;;;;35.33;14.50;;;;;;;8.33;100.00;96451.38;5068083;28;20085;-75
2021/10/08 00:33:58;;;;;;;34.53;14.02;;;;;;;8.28;100.00;96443.44;5050769;28;20036;-76
2021/10/08 00:36:23;;;;;;;35.65;15.15;;;;;;;8.39;100.00;96455.72;5042778;28;20161;-75
2021/10/08 00:38:48;;;;;;;33.78;15.05;;;;;;;8.42;100.00;96450.00;5048567;28;20145;-76
2021/10/08 00:41:14;;;;;;;33.08;14.05;;;;;;;8.39;100.00;96445.22;5054117;28;20072;-76
2021/10/08 00:43:40;;;;;;;30.63;13.75;;;;;;;8.33;100.00;96441.69;5068207;28;20055;-76
2021/10/08 00:46:05;;;;;;;36.40;14.55;;;;;;;8.36;100.00;96445.69;5064170;28;20055;-76
2021/10/08 00:48:31;;;;;;;31.83;14.45;;;;;;;8.47;100.00;96438.84;5068329;28;20106;-75
2021/10/08 00:50:56;;;;;;;34.53;14.65;;;;;;;8.44;100.00;96440.09;5067833;28;20044;-76
2021/10/08 00:53:22;;;;;;;34.05;13.75;;;;;;;8.40;100.00;96436.31;5050537;28;20047;-76
2021/10/08 00:55:50;;;;;;;35.63;14.05;;;;;;;8.41;100.00;96432.66;5061577;28;20494;-76
2021/10/08 00:58:20;;;;;;;32.92;14.30;;;;;;;8.39;100.00;96429.50;5048395;28;20521;-76
2021/10/08 01:00:47;;;;;;;31.10;13.98;;;;;;;8.39;100.00;96428.69;5065945;28;20131;-76
2021/10/08 01:03:13;;;;;;;30.13;13.18;;;;;;;8.41;100.00;96437.91;5067809;28;20066;-76
2021/10/08 01:05:40;;;;;;;31.77;12.95;;;;;;;8.52;100.00;96432.88;5048952;28;20063;-76
2021/10/08 01:08:08;;;;;;;30.50;13.00;;;;;;;8.39;100.00;96429.50;5067099;28;20442;-76
2021/10/08 01:10:37;;;;;;;30.75;13.27;;;;;;;8.42;100.00;96431.66;5067465;28;20041;-76
2021/10/08 01:13:05;;;;;;;34.33;12.85;;;;;;;8.38;100.00;96430.50;5050200;28;20045;-76
2021/10/08 01:15:30;;;;;;;34.28;13.35;;;;;;;8.26;100.00;96429.72;5044760;28;20071;-76
2021/10/08 01:17:56;;;;;;;33.05;13.10;;;;;;;8.22;100.00;96428.63;5048332;28;20688;-76
2021/10/08 01:20:23;;;;;;;35.25;12.23;;;;;;;8.37;100.00;96426.28;5065967;28;20048;-76
2021/10/08 01:22:49;;;;;;;29.85;12.45;;;;;;;8.43;100.00;96422.75;5067887;28;20513;-76
2021/10/08 01:25:15;;;;;;;30.98;12.27;;;;;;;8.37;100.00;96425.50;5066790;28;20048;-76
2021/10/08 01:27:42;;;;;;;30.67;12.70;;;;;;;8.31;100.00;96416.72;5072039;28;20494;-76
2021/10/08 01:30:08;;;;;;;32.92;12.65;;;;;;;8.37;100.00;96410.53;5053909;28;20123;-76
2021/10/08 01:32:35;;;;;;;30.77;12.30;;;;;;;8.31;100.00;96416.72;5054223;28;20438;-76
2021/10/08 01:35:01;;;;;;;33.50;13.18;;;;;;;8.20;100.00;96415.72;5056801;28;20135;-76
2021/10/08 01:37:27;;;;;;;35.00;13.55;;;;;;;8.19;100.00;96408.09;5060930;28;20109;-76
2021/10/08 01:39:53;;;;;;;32.53;11.85;;;;;;;8.29;100.00;96413.56;5071487;28;20045;-76
2021/10/08 01:42:19;;;;;;;31.52;13.73;;;;;;;8.30;100.00;96409.88;5072195;28;20129;-76
2021/10/08 01:44:44;;;;;;;38.45;12.80;;;;;;;8.27;100.00;96405.91;5069720;28;20044;-76
2021/10/08 01:47:10;;;;;;;32.88;12.50;;;;;;;8.30;100.00;96417.75;5051924;28;20045;-76
2021/10/08 01:49:35;;;;;;;27.70;12.52;;;;;;;8.22;100.00;96412.88;5049673;28;20048;-76
2021/10/08 01:52:03;;;;;;;34.95;13.68;;;;;;;8.35;100.00;96412.63;5053840;28;20051;-76
2021/10/08 01:54:29;;;;;;;27.90;12.00;;;;;;;8.25;100.00;96417.66;5047782;28;20530;-76
2021/10/08 01:56:54;;;;;;;33.13;12.65;;;;;;;8.25;100.00;96422.91;5061615;28;20044;-76
2021/10/08 01:59:20;;;;;;;31.38;13.27;;;;;;;8.15;100.00;96418.25;5077197;28;20268;-76
2021/10/08 02:01:46;;;;;;;31.25;12.00;;;;;;;8.20;100.00;96425.41;5071088;28;20044;-76
2021/10/08 02:04:11;;;;;;;30.77;13.07;;;;;;;8.12;100.00;96419.50;5035706;28;20049;-76
2021/10/08 02:06:38;;;;;;;31.98;13.15;;;;;;;8.08;100.00;96418.38;5051938;28;20044;-76
2021/10/08 02:09:04;;;;;;;33.80;12.32;;;;;;;8.14;100.00;96422.69;5051441;28;20717;-76
2021/10/08 02:11:30;;;;;;;34.38;13.48;;;;;;;8.22;100.00;96412.88;5051067;28;20037;-76
2021/10/08 02:13:56;;;;;;;33.42;13.18;;;;;;;8.31;100.00;96411.50;5052082;28;20048;-76
2021/10/08 02:16:22;;;;;;;29.60;11.23;;;;;;;8.25;100.00;96413.22;5079414;28;20033;-76
2021/10/08 02:18:49;;;;;;;27.80;11.93;;;;;;;8.21;100.00;96417.31;5033367;28;20042;-76
2021/10/08 02:21:15;;;;;;;33.78;12.98;;;;;;;8.15;100.00;96413.78;5051063;28;20041;-76
2021/10/08 02:23:41;;;;;;;31.02;13.25;;;;;;;8.28;100.00;96417.19;5053927;28;20528;-76
2021/10/08 02:26:07;;;;;;;33.25;12.82;;;;;;;8.32;100.00;96413.09;5062917;28;20044;-76
2021/10/08 02:28:32;;;;;;;30.15;12.40;;;;;;;8.35;100.00;96417.88;5051052;28;20045;-76
2021/10/08 02:30:58;;;;;;;30.45;12.55;;;;;;;8.28;100.00;96411.94;5050588;28;20041;-76
2021/10/08 02:33:24;;;;;;;31.92;12.50;;;;;;;8.43;100.00;96414.88;5052163;28;20071;-76
2021/10/08 02:35:50;;;;;;;28.02;11.25;;;;;;;8.42;100.00;96407.22;5070615;28;20052;-76
2021/10/08 02:38:17;;;;;;;26.25;11.68;;;;;;;8.42;100.00;96413.28;5053075;28;20044;-76
2021/10/08 02:40:43;;;;;;;29.70;12.30;;;;;;;8.47;100.00;96408.16;5078470;28;20040;-76
2021/10/08 02:43:08;;;;;;;28.05;11.82;;;;;;;8.47;100.00;96416.03;5076563;28;20040;-76
2021/10/08 02:45:34;;;;;;;26.67;11.88;;;;;;;8.52;100.00;96409.28;5058668;28;20049;-76
2021/10/08 02:48:00;;;;;;;29.48;12.82;;;;;;;8.47;100.00;96405.53;5070032;28;20118;-76
2021/10/08 02:50:26;;;;;;;25.17;11.02;;;;;;;8.45;100.00;96402.34;5070753;28;20048;-76
2021/10/08 02:52:52;;;;;;;30.40;12.35;;;;;;;8.38;100.00;96417.41;5064850;28;20491;-76
2021/10/08 02:55:18;;;;;;;28.70;11.45;;;;;;;8.29;100.00;96414.34;5051041;28;20045;-76
2021/10/08 02:57:43;;;;;;;26.33;11.90;;;;;;;8.23;100.00;96415.28;5050863;28;20090;-76
2021/10/08 03:00:10;;;;;;;29.05;12.15;;;;;;;8.23;100.00;96419.72;5069728;28;20040;-76
2021/10/08 03:02:37;;;;;;;28.58;11.05;;;;;;;8.21;100.00;96416.53;5059915;28;20123;-76
2021/10/08 03:05:04;;;;;;;32.83;12.50;;;;;;;8.10;100.00;96405.84;5050565;28;20044;-76
2021/10/08 03:07:29;;;;;;;34.00;11.52;;;;;;;8.20;100.00;96412.31;5050908;28;20045;-76
2021/10/08 03:09:55;;;;;;;32.08;12.35;;;;;;;8.21;100.00;96411.28;5032327;28;20068;-76
2021/10/08 03:12:20;;;;;;;30.73;12.68;;;;;;;8.20;100.00;96409.69;5053196;28;20056;-76
2021/10/08 03:14:47;;;;;;;28.73;11.77;;;;;;;8.28;100.00;96417.19;5070404;28;20044;-76
2021/10/08 03:17:13;;;;;;;30.48;12.43;;;;;;;8.28;100.00;96419.81;5058774;28;20048;-76
2021/10/08 03:19:38;;;;;;;33.22;13.43;;;;;;;8.23;100.00;96409.22;5050118;28;20041;-76
2021/10/08 03:22:04;;;;;;;32.03;12.80;;;;;;;8.43;100.00;96414.88;5050192;28;20127;-76
2021/10/08 03:24:30;;;;;;;32.42;12.98;;;;;;;8.40;100.00;96410.09;5034188;28;20041;-76
2021/10/08 03:26:55;;;;;;;29.90;12.13;;;;;;;8.44;100.00;96406.00;5052998;28;20049;-76
2021/10/08 03:29:21;;;;;;;29.80;12.07;;;;;;;8.46;100.00;96393.47;5056828;28;20131;-76
2021/10/08 03:31:47;;;;;;;32.38;12.95;;;;;;;8.51;100.00;96400.63;5069831;28;20037;-76
2021/10/08 03:34:12;;;;;;;26.23;11.57;;;;;;;8.48;100.00;96395.84;5055770;28;20045;-76
2021/10/08 03:39:12;;;;;;;31.50;12.10;;;;;;;8.39;100.00;96400.63;5069542;28;20068;-76
2021/10/08 03:41:40;;;;;;;28.52;11.30;;;;;;;8.32;100.00;96402.59;5069453;28;20071;-76
2021/10/08 03:44:06;;;;;;;30.45;12.65;;;;;;;8.46;100.00;96398.72;5052084;28;20486;-76
2021/10/08 03:46:42;;;;;;;28.90;12.07;;;;;;;8.52;100.00;96406.66;5068168;28;20048;-76
2021/10/08 03:51:35;;;;;;;31.10;12.02;;;;;;;8.44;100.00;96405.19;5069434;28;20700;-76
2021/10/08 03:54:02;;;;;;;28.73;11.57;;;;;;;8.39;100.00;96408.50;5047000;28;20048;-76
2021/10/08 03:56:28;;;;;;;25.40;11.32;;;;;;;8.35;100.00;96412.63;5049820;28;20115;-76
2021/10/08 03:58:55;;;;;;;28.92;12.30;;;;;;;8.34;100.00;96421.50;5031766;28;20037;-76
2021/10/08 04:01:21;;;;;;;34.38;13.13;;;;;;;8.32;100.00;96418.34;5049416;28;20112;-76
2021/10/08 04:03:47;;;;;;;32.97;12.32;;;;;;;8.34;100.00;96416.25;5069189;28;20046;-76
2021/10/08 04:06:13;;;;;;;27.88;11.75;;;;;;;8.40;100.00;96415.31;5069272;28;20493;-76
2021/10/08 04:08:38;;;;;;;30.00;12.32;;;;;;;8.40;100.00;96420.56;5050683;28;20508;-76
2021/10/08 04:11:04;;;;;;;37.17;13.20;;;;;;;8.38;100.00;96414.78;5068951;28;20438;-76
2021/10/08 04:13:30;;;;;;;30.75;12.88;;;;;;;8.32;100.00;96413.88;5069289;28;20036;-76
2021/10/08 04:15:55;;;;;;;37.50;13.60;;;;;;;8.35;100.00;96417.06;5066316;28;20134;-76
2021/10/08 04:18:21;;;;;;;36.92;14.35;;;;;;;8.35;100.00;96407.38;5049226;28;20045;-76
2021/10/08 04:20:47;;;;;;;32.45;13.05;;;;;;;8.38;100.00;96417.41;5048841;28;20041;-76
2021/10/08 04:23:12;;;;;;;39.58;14.75;;;;;;;8.38;100.00;96416.63;5049182;28;20550;-76
2021/10/08 04:25:38;;;;;;;38.28;14.90;;;;;;;8.35;100.00;96407.38;5048567;28;20041;-76
2021/10/08 04:28:04;;;;;;;39.78;15.25;;;;;;;8.35;100.00;96407.38;5031134;28;20056;-76
2021/10/08 04:30:30;;;;;;;41.80;15.13;;;;;;;8.36;100.00;96408.97;5047373;28;20051;-76
2021/10/08 04:32:56;;;;;;;45.55;16.92;;;;;;;8.30;100.00;96409.88;5048989;28;20106;-76
2021/10/08 04:35:21;;;;;;;46.13;17.30;;;;;;;8.33;100.00;96409.41;5045529;28;20106;-76
2021/10/08 04:37:47;;;;;;;41.42;15.93;;;;;;;8.32;100.00;96407.84;5066579;28;20047;-76
2021/10/08 04:40:13;;;;;;;41.00;15.75;;;;;;;8.37;100.00;96407.94;5068640;28;20047;-76
2021/10/08 04:42:38;;;;;;;38.47;15.23;;;;;;;8.37;100.00;96407.94;5068578;28;20111;-76
2021/10/08 04:45:05;;;;;;;37.30;14.43;;;;;;;8.45;100.00;96404.19;5050775;28;20044;-76
2021/10/08 04:47:30;;;;;;;38.33;15.23;;;;;;;8.55;100.00;96400.94;5052581;28;20037;-76
2021/10/08 04:49:56;;;;;;;40.95;17.25;;;;;;;8.52;100.00;96406.66;5048404;28;20407;-76
2021/10/08 04:52:21;;;;;;;34.53;14.73;;;;;;;8.58;100.00;96405.75;5048785;28;20065;-76
2021/10/08 04:54:47;;;;;;;38.92;15.48;;;;;;;8.56;100.00;96402.53;5058418;28;20047;-76
2021/10/08 04:57:13;;;;;;;36.80;14.93;;;;;;;8.60;100.00;96408.91;5068599;28;20044;-76
2021/10/08 04:59:38;;;;;;;41.15;14.77;;;;;;;8.53;100.00;96413.50;5068542;28;20056;-76
2021/10/08 05:02:04;;;;;;;39.65;16.00;;;;;;;8.53;100.00;96403.00;5062000;28;20410;-76
2021/10/08 05:04:29;;;;;;;36.15;16.10;;;;;;;8.63;100.00;96408.44;5063827;28;20052;-76
2021/10/08 05:06:55;;;;;;;38.50;16.52;;;;;;;8.74;100.00;96414.69;5045244;28;20044;-76
2021/10/08 05:09:21;;;;;;;37.40;16.23;;;;;;;8.68;100.00;96411.16;5048433;28;20044;-76
2021/10/08 05:11:47;;;;;;;34.28;15.57;;;;;;;8.60;100.00;96408.91;5048198;28;20045;-76
2021/10/08 05:14:12;;;;;;;37.17;16.50;;;;;;;8.55;100.00;96400.94;5048420;28;20564;-76
2021/10/08 05:16:39;;;;;;;35.80;15.98;;;;;;;8.66;100.00;96407.97;5048407;28;20083;-76
2021/10/08 05:19:05;;;;;;;37.53;16.52;;;;;;;8.67;100.00;96406.94;5030450;28;20562;-76
2021/10/08 05:21:30;;;;;;;37.22;15.57;;;;;;;8.72;100.00;96407.06;5048188;28;20115;-76
2021/10/08 05:23:56;;;;;;;42.35;15.88;;;;;;;8.67;100.00;96404.31;5051349;28;20483;-76
2021/10/08 05:26:22;;;;;;;42.42;16.98;;;;;;;8.57;100.00;96404.13;5049926;28;20056;-76
2021/10/08 05:28:47;;;;;;;37.53;16.75;;;;;;;8.60;100.00;96401.03;5030442;28;20132;-76
2021/10/08 05:31:13;;;;;;;44.55;16.80;;;;;;;8.48;100.00;96401.09;5047881;28;20075;-76
2021/10/08 05:33:39;;;;;;;48.35;18.83;;;;;;;8.43;100.00;96398.34;5048033;28;20052;-76
2021/10/08 05:36:04;;;;;;;44.60;18.52;;;;;;;8.52;100.00;96396.16;5044475;28;20041;-76
2021/10/08 05:38:30;;;;;;;43.50;17.45;;;;;;;8.52;100.00;96406.66;5067449;28;20040;-76
2021/10/08 05:40:56;;;;;;;51.05;18.88;;;;;;;8.55;100.00;96406.19;5056659;28;20040;-76
2021/10/08 05:43:21;;;;;;;45.72;18.35;;;;;;;8.56;100.00;96407.78;5088092;28;20044;-76
2021/10/08 05:45:47;;;;;;;48.47;17.40;;;;;;;8.71;100.00;96405.44;5071221;28;20044;-76
2021/10/08 05:48:13;;;;;;;50.90;17.83;;;;;;;8.61;100.00;96410.50;5068471;28;20040;-76
2021/10/08 05:50:40;;;;;;;41.40;17.55;;;;;;;8.64;100.00;96408.22;5068275;28;20048;-76
2021/10/08 05:53:09;;;;;;;42.28;17.55;;;;;;;8.69;100.00;96409.34;5066848;28;20594;-76
2021/10/08 05:55:38;;;;;;;42.75;17.70;;;;;;;8.73;100.00;96413.09;5068349;28;20044;-76
2021/10/08 05:58:06;;;;;;;51.20;20.02;;;;;;;8.70;100.00;96406.47;5068001;28;20041;-76
2021/10/08 06:00:37;;;;;;;65.68;21.17;;;;;;;8.68;100.00;96416.41;5067845;28;20043;-76
2021/10/08 06:03:03;;;;;;;71.53;23.70;;;;;;;8.59;100.00;96412.56;5055403;28;20114;-76
2021/10/08 06:05:29;;;;;;;64.13;21.40;;;;;;;8.80;100.00;96430.28;5050176;28;20486;-76
2021/10/08 06:07:55;;;;;;;59.50;21.17;;;;;;;8.71;100.00;96421.19;5054187;28;20049;-76
2021/10/08 06:10:21;;;;;;;62.60;21.20;;;;;;;8.65;100.00;96416.91;5036415;28;20047;-76
2021/10/08 06:12:46;;;;;;;60.95;21.13;;;;;;;8.63;100.00;96408.44;5072176;28;20495;-76
2021/10/08 06:15:12;;;;;;;66.95;22.15;;;;;;;8.75;100.00;96416.25;5072040;28;20041;-76
2021/10/08 06:17:38;;;;;;;62.15;21.70;;;;;;;8.88;100.00;96423.88;5053683;28;20083;-76
2021/10/08 06:20:05;;;;;;;66.93;21.00;;;;;;;8.90;100.00;96418.38;5033574;28;20045;-76
2021/10/08 06:22:31;;;;;;;61.50;21.15;;;;;;;8.88;100.00;96417.81;5051479;28;20717;-76
2021/10/08 06:24:57;;;;;;;61.20;22.05;;;;;;;8.99;100.00;96432.69;5050967;28;20053;-76
2021/10/08 06:27:22;;;;;;;64.75;22.33;;;;;;;9.07;100.00;96415.78;5051319;28;20049;-76
2021/10/08 06:29:48;;;;;;;66.85;23.42;;;;;;;9.03;100.00;96418.06;5050953;28;20041;-76
2021/10/08 06:32:13;;;;;;;69.78;22.80;;;;;;;8.92;100.00;96416.31;5054625;28;20051;-76
2021/10/08 06:34:39;;;;;;;65.28;23.00;;;;;;;8.87;100.00;96424.88;5075023;28;20071;-76
2021/10/08 06:37:05;;;;;;;67.18;22.70;;;;;;;8.91;100.00;96427.84;5067669;28;20145;-76
2021/10/08 06:39:30;;;;;;;77.10;24.02;;;;;;;8.92;100.00;96422.38;5069836;28;20040;-76
2021/10/08 06:41:56;;;;;;;69.18;23.67;;;;;;;9.10;100.00;96428.44;5050583;28;20511;-76
2021/10/08 06:44:22;;;;;;;68.55;23.10;;;;;;;9.06;100.00;96433.34;5051469;28;20037;-76
2021/10/08 06:46:48;;;;;;;72.60;23.27;;;;;;;9.00;100.00;96434.31;5050307;28;20094;-76
2021/10/08 06:49:13;;;;;;;71.60;24.17;;;;;;;8.98;100.00;96428.50;5051559;28;20111;-76
2021/10/08 06:51:39;;;;;;;78.40;24.42;;;;;;;9.04;100.00;96434.63;5067992;28;20041;-75
2021/10/08 06:54:04;;;;;;;70.80;21.38;;;;;;;9.09;100.00;96442.59;5051517;28;20050;-75
2021/10/08 06:56:30;;;;;;;65.63;22.30;;;;;;;9.07;100.00;96440.19;5057805;28;20466;-75
2021/10/08 06:58:56;;;;;;;74.60;23.90;;;;;;;9.08;100.00;96433.94;5066139;28;20040;-76
2021/10/08 07:01:22;;;;;;;70.80;23.75;;;;;;;9.04;100.00;96451.19;5057675;28;20513;-76
2021/10/08 07:03:48;;;;;;;72.70;23.63;;;;;;;9.00;100.00;96447.44;5051818;28;20064;-76
2021/10/08 07:06:14;;;;;;;79.75;24.75;;;;;;;9.07;100.00;96450.69;5068257;28;20528;-76
2021/10/08 07:08:40;;;;;;;85.03;25.65;;;;;;;9.05;100.00;96452.78;5067958;28;20119;-75
2021/10/08 07:11:06;;;;;;;73.53;23.60;;;;;;;9.04;100.00;96448.56;5047758;28;20093;-75
2021/10/08 07:13:32;;;;;;;71.57;21.98;;;;;;;9.06;100.00;96443.84;5070573;28;20075;-76
2021/10/08 07:15:58;;;;;;;71.45;23.98;;;;;;;9.06;100.00;96448.31;5065577;28;20040;-76
2021/10/08 07:18:33;;;;;;;78.85;25.27;;;;;;;9.02;100.00;96447.97;5068228;28;20043;-76
2021/10/08 07:20:59;;;;;;;78.50;23.63;;;;;;;9.05;100.00;96452.78;5069528;28;20044;-76
2021/10/08 07:23:25;;;;;;;73.93;24.58;;;;;;;9.00;100.00;96442.19;5048969;28;20498;-77
2021/10/08 07:25:51;;;;;;;74.05;24.33;;;;;;;9.02;100.00;96442.72;5068920;28;20051;-77
2021/10/08 07:28:17;;;;;;;89.88;24.92;;;;;;;9.06;100.00;96449.09;5050943;28;20036;-77
2021/10/08 07:30:43;;;;;;;83.30;24.80;;;;;;;9.07;100.00;96445.44;5051280;28;20049;-77
2021/10/08 07:33:09;;;;;;;74.35;24.15;;;;;;;9.05;100.00;96447.53;5048153;28;20103;-76
2021/10/08 07:35:34;;;;;;;73.95;23.08;;;;;;;9.09;100.00;96446.00;5059837;28;20072;-76
2021/10/08 07:38:00;;;;;;;73.53;23.95;;;;;;;9.07;100.00;96444.66;5062556;28;20570;-76
2021/10/08 07:40:25;;;;;;;72.25;22.13;;;;;;;9.10;100.00;96454.69;5066643;28;20079;-77
2021/10/08 07:42:52;;;;;;;78.30;23.73;;;;;;;9.10;100.00;96455.47;5051064;28;20049;-77
2021/10/08 07:45:18;;;;;;;81.15;24.15;;;;;;;9.21;100.00;96455.66;5051573;28;20403;-77
2021/10/08 07:47:44;;;;;;;61.10;21.23;;;;;;;9.21;100.00;96461.72;5039457;28;20071;-77
2021/10/08 07:50:11;;;;;;;62.67;19.95;;;;;;;9.23;100.00;96458.84;5055366;28;20049;-77
2021/10/08 07:52:37;;;;;;;64.22;21.02;;;;;;;9.22;100.00;96457.25;5069577;28;20255;-77
2021/10/08 07:55:05;;;;;;;57.97;19.30;;;;;;;9.24;100.00;96460.41;5050915;28;20068;-77
2021/10/08 07:57:30;;;;;;;59.53;19.73;;;;;;;9.26;100.00;96459.16;5052600;28;20625;-77
2021/10/08 07:59:56;;;;;;;60.20;19.38;;;;;;;9.24;100.00;96460.41;5054377;28;20044;-77
2021/10/08 08:02:23;;;;;;;58.08;19.70;;;;;;;9.31;100.00;96467.13;5069104;28;20052;-77
2021/10/08 08:04:50;;;;;;;60.75;19.17;;;;;;;9.31;100.00;96466.31;5067357;28;20043;-77
2021/10/08 08:07:15;;;;;;;54.45;18.55;;;;;;;9.31;100.00;96471.56;5054568;28;20545;-77
2021/10/08 08:09:41;;;;;;;54.67;20.98;;;;;;;9.23;100.00;96464.09;5031306;28;20049;-76
2021/10/08 08:12:08;;;;;;;68.07;21.25;;;;;;;9.26;100.00;96468.88;5057474;28;20040;-77
2021/10/08 08:14:33;;;;;;;53.63;18.98;;;;;;;9.33;100.00;96469.53;5061982;28;20048;-77
2021/10/08 08:16:59;;;;;;;62.30;18.77;;;;;;;9.38;100.00;96472.25;5060977;28;20052;-76
2021/10/08 08:19:24;;;;;;;55.10;19.55;;;;;;;9.42;100.00;96468.09;5066709;28;20050;-75
2021/10/08 08:21:50;;;;;;;49.67;18.20;;;;;;;9.38;100.00;96474.06;5049921;28;20044;-76
2021/10/08 08:24:16;;;;;;;52.65;18.25;;;;;;;9.48;100.00;96469.78;5066967;28;20045;-75
2021/10/08 08:26:41;;;;;;;52.58;17.88;;;;;;;9.58;100.00;96465.72;5068472;28;20115;-75
2021/10/08 08:29:07;;;;;;;58.05;19.45;;;;;;;9.41;100.00;96461.25;5068157;28;20060;-76
2021/10/08 08:31:32;;;;;;;55.47;18.05;;;;;;;9.45;100.00;96462.38;5061810;28;20068;-76
2021/10/08 08:33:58;;;;;;;51.63;18.70;;;;;;;9.40;100.00;96464.91;5045581;28;20124;-75
2021/10/08 08:36:24;;;;;;;54.45;19.98;;;;;;;9.49;100.00;96458.22;5049512;28;20055;-75
2021/10/08 08:38:50;;;;;;;52.13;17.88;;;;;;;9.42;100.00;96460.22;5050289;28;20765;-75
2021/10/08 08:41:16;;;;;;;55.28;18.38;;;;;;;9.48;100.00;96461.91;5051911;28;20066;-76
2021/10/08 08:43:42;;;;;;;61.60;19.45;;;;;;;9.49;100.00;96463.47;5079108;28;20380;-77
2021/10/08 08:46:07;;;;;;;56.50;19.17;;;;;;;9.48;100.00;96467.16;5067935;28;20052;-76
2021/10/08 08:48:33;;;;;;;45.58;17.25;;;;;;;9.52;100.00;96462.22;5050183;28;20052;-77
2021/10/08 08:50:58;;;;;;;53.15;18.52;;;;;;;9.48;100.00;96456.66;5068257;28;20047;-76
2021/10/08 08:53:24;;;;;;;48.92;17.75;;;;;;;9.67;100.00;96457.19;5068413;28;20071;-76
2021/10/08 08:55:51;;;;;;;48.42;16.83;;;;;;;9.77;100.00;96453.94;5060894;28;20040;-76
2021/10/08 08:58:18;;;;;;;46.72;15.77;;;;;;;9.89;100.00;96454.63;5065145;28;20051;-76
2021/10/08 09:00:47;;;;;;;44.28;16.42;;;;;;;9.90;100.00;96452.81;5063444;28;20556;-78
2021/10/08 09:03:14;;;;;;;38.88;16.08;;;;;;;9.99;100.00;96455.81;5054907;28;20048;-77
2021/10/08 09:05:47;;;;;;;36.67;14.13;;;;;;;9.89;100.00;96457.25;5066831;28;20033;-77
2021/10/08 09:08:13;;;;;;;38.22;14.55;;;;;;;9.84;100.00;96451.13;5055745;28;20089;-77
2021/10/08 09:10:46;;;;;;;43.67;15.82;;;;;;;9.89;100.00;96449.34;5067405;28;20040;-76
2021/10/08 09:13:16;;;;;;;36.63;14.60;;;;;;;9.92;100.00;96444.66;5048631;28;20064;-75
2021/10/08 09:15:50;;;;;;;36.83;14.50;;;;;;;10.03;100.00;96446.41;5068177;28;20451;-76
2021/10/08 09:18:19;;;;;;;33.17;13.82;;;;;;;10.12;100.00;96450.19;5050104;28;20045;-75
2021/10/08 09:21:09;;;;;;;34.58;13.63;;;;;;;10.01;100.00;96432.69;5066580;28;20044;-75
2021/10/08 09:23:41;;;;;;;34.63;13.10;;;;;;;10.18;100.00;96438.69;5067645;28;20048;-76
2021/10/08 09:26:22;;;;;;;35.30;13.82;;;;;;;10.12;100.00;96438.88;5054497;28;20091;-76
2021/10/08 09:29:00;;;;;;;34.15;13.77;;;;;;;10.02;100.00;96444.81;5065867;28;20041;-76
2021/10/08 09:31:47;;;;;;;34.28;14.20;;;;;;;10.05;100.00;96444.31;5060701;28;20052;-75
2021/10/08 09:34:23;;;;;;;36.40;15.10;;;;;;;10.04;100.00;96440.09;5071789;28;20080;-74
2021/10/08 09:36:57;;;;;;;34.00;14.18;;;;;;;10.21;100.00;96432.97;5062362;28;20033;-75
2021/10/08 09:39:29;;;;;;;38.90;14.75;;;;;;;10.23;100.00;96435.34;5059644;28;20474;-76
2021/10/08 09:42:02;;;;;;;34.60;14.38;;;;;;;10.31;100.00;96436.75;5066255;28;20119;-76
2021/10/08 09:44:29;;;;;;;32.78;12.95;;;;;;;10.28;100.00;96431.97;5066576;28;20505;-76
2021/10/08 09:47:07;;;;;;;31.80;13.13;;;;;;;10.43;100.00;96434.84;5070143;28;20047;-76
2021/10/08 09:49:33;;;;;;;33.67;13.85;;;;;;;10.65;100.00;96426.13;5070347;28;20118;-76
2021/10/08 09:51:58;;;;;;;31.58;13.38;;;;;;;10.54;100.00;96430.47;5071609;28;20497;-79
2021/10/08 09:54:27;;;;;;;29.52;12.07;;;;;;;10.38;100.00;96430.28;5074221;28;20044;-77
2021/10/08 09:57:00;;;;;;;31.33;12.05;;;;;;;10.36;100.00;96429.75;5072543;28;20041;-75
2021/10/08 09:59:39;;;;;;;25.60;11.18;;;;;;;10.37;100.00;96436.63;5046949;28;20045;-76
2021/10/08 10:02:05;;;;;;;29.10;11.88;;;;;;;10.40;100.00;96424.78;5070941;28;20036;-74
2021/10/08 10:04:55;;;;;;;28.70;12.05;;;;;;;10.52;100.00;96422.81;5069326;28;20064;-77
2021/10/08 10:07:23;;;;;;;25.38;11.57;;;;;;;10.68;100.00;96425.63;5059244;28;20637;-75
2021/10/08 10:09:50;;;;;;;21.20;10.85;;;;;;;10.66;100.00;96425.88;5070987;28;20048;-77
2021/10/08 10:12:18;;;;;;;26.20;11.18;;;;;;;10.62;100.00;96426.63;5069179;28;20048;-76
2021/10/08 10:14:49;;;;;;;27.27;12.10;;;;;;;10.69;100.00;96421.97;5065396;28;20037;-76
2021/10/08 10:17:17;;;;;;;23.02;11.43;;;;;;;10.65;100.00;96426.13;5055809;28;20067;-76
2021/10/08 10:19:45;;;;;;;22.67;11.02;;;;;;;10.73;100.00;96428.31;5075358;28;20032;-79
2021/10/08 10:22:17;;;;;;;27.30;11.82;;;;;;;10.88;100.00;96425.84;5051251;28;20056;-78
2021/10/08 10:24:47;;;;;;;20.92;9.88;;;;;;;10.74;100.00;96424.63;5073613;28;20068;-79
2021/10/08 10:27:15;;;;;;;24.08;11.43;;;;;;;10.70;100.00;96429.63;5073339;28;20041;-78
2021/10/08 10:29:43;;;;;;;25.15;10.60;;;;;;;10.68;100.00;96421.16;5072425;28;20051;-78
2021/10/08 10:32:09;;;;;;;18.98;9.90;;;;;;;10.81;100.00;96414.69;5072594;28;20116;-79
2021/10/08 10:34:37;;;;;;;23.98;10.75;;;;;;;11.04;100.00;96423.34;5072687;28;20118;-78
2021/10/08 10:37:03;;;;;;;28.27;11.40;;;;;;;11.31;100.00;96419.91;5048913;28;20048;-78
2021/10/08 10:39:29;;;;;;;22.20;11.63;;;;;;;11.47;98.72;96416.34;5069953;28;20036;-77
2021/10/08 10:42:00;;;;;;;22.38;11.60;;;;;;;11.50;98.59;96426.38;5062552;28;20062;-77
2021/10/08 10:44:41;;;;;;;21.92;11.35;;;;;;;11.41;99.85;96422.63;5067539;28;20083;-77
2021/10/08 10:49:52;;;;;;;23.73;11.65;;;;;;;11.73;96.25;96413.88;5069891;28;20118;-77
2021/10/08 10:52:21;;;;;;;21.60;11.85;;;;;;;11.59;96.98;96419.59;5070025;28;20036;-77
2021/10/08 10:54:51;;;;;;;22.73;12.48;;;;;;;11.56;97.08;96422.72;5067857;28;20052;-79
2021/10/08 10:57:20;;;;;;;23.60;11.88;;;;;;;11.55;97.65;96429.06;5046410;28;20040;-78
2021/10/08 10:59:47;;;;;;;24.63;11.52;;;;;;;12.01;96.37;96430.41;5061615;28;20068;-78
2021/10/08 11:02:15;;;;;;;23.35;12.05;;;;;;;11.88;94.76;96421.06;5070239;28;20052;-77
2021/10/08 11:04:41;;;;;;;24.75;12.98;;;;;;;11.71;96.05;96426.50;5070161;28;20140;-78
2021/10/08 11:07:09;;;;;;;24.85;13.25;;;;;;;11.64;95.72;96420.66;5063872;28;20051;-78
2021/10/08 11:09:37;;;;;;;22.98;12.52;;;;;;;11.71;94.68;96421.22;5069967;28;20051;-77
2021/10/08 11:12:36;;;;;;;25.42;12.95;;;;;;;11.58;94.41;96427.75;5068966;28;20045;-77
2021/10/08 11:15:14;;;;;;;33.20;15.10;;;;;;;12.19;94.23;96422.06;5031661;28;20426;-78
2021/10/08 11:17:42;;;;;;;24.65;12.88;;;;;;;12.83;89.97;96418.34;5070813;28;20128;-79
2021/10/08 11:20:08;;;;;;;22.63;11.77;;;;;;;13.38;87.29;96409.19;5065070;28;20041;-77
2021/10/08 11:22:45;;;;;;;23.02;11.68;;;;;;;12.64;86.12;96412.75;5067547;28;20494;-77
2021/10/08 11:25:12;;;;;;;21.85;13.75;;;;;;;12.21;89.53;96405.97;5052488;28;20036;-77